Terminal Aerodrome Forecast
Issued by NWS Detroit/Pontiac, MI

Home | Current Version | Previous Version | Text Only | Print | Product List | Glossary On
Versions: 1 2 3 4 5 6 7 8 9 10 11 12 13 14 15 16 17 18 19 20 21 22 23 24 25
000
FTUS43 KDTX 190834 AAA
TAFDTW
TAF AMD
KDTW 190834Z 1909/2012 12005KT P6SM BKN060 OVC200 WS020/23040KT
     FM191000 14004KT P6SM BKN035 OVC060 WS020/23040KT
     FM191200 16004KT 4SM -SHRA BR SCT007 OVC015
     FM191400 16005KT 2SM -SHRA BR OVC006
     FM191600 17006KT 3/4SM -SHRA BR OVC004
     FM200000 20012KT 3SM -SHRA BR OVC006
     FM200800 20013KT 6SM -SHRA BR OVC015=

USA.gov is the U.S. government's official web portal to all federal, state and local government web resources and services.